Time;durP1;ratioP1;P1;durP2;ratioP2;P2;SDS_P1;SDS_P2;PMS_P1;PMS_P2;Temp;Humidity;BMP_temperature;BMP_pressure;BME280_temperature;BME280_humidity;BME280_pressure;Samples;Min_cycle;Max_cycle;Signal;HPM_P1;HPM_P2
2022/10/31 00:01:31;;;;;;;21.10;10.13;;;;;;;-145.18;100.00;46654.53;5009611;28;20049;-72
2022/10/31 00:03:56;;;;;;;19.17;9.80;;;;;;;-145.18;100.00;46656.50;5010143;28;20060;-72
2022/10/31 00:06:22;;;;;;;14.87;9.47;;;;;;;-145.18;100.00;46662.34;5009900;28;20038;-72
2022/10/31 00:08:52;;;;;;;17.90;10.67;;;;;;;-145.18;100.00;46656.50;5010070;28;20037;-72
2022/10/31 00:11:17;;;;;;;22.83;11.20;;;;;;;-145.18;100.00;46654.53;5009488;28;20034;-72
2022/10/31 00:13:43;;;;;;;16.23;10.37;;;;;;;-145.18;100.00;46656.50;5010004;28;20504;-71
2022/10/31 00:16:19;;;;;;;21.60;11.10;;;;;;;-145.18;100.00;46660.41;5009767;28;20107;-72
2022/10/31 00:18:49;;;;;;;18.70;11.07;;;;;;;-145.18;100.00;46658.44;5010259;28;20034;-72
2022/10/31 00:21:15;;;;;;;22.10;9.80;;;;;;;-145.18;100.00;46658.44;5009684;28;20509;-72
2022/10/31 00:23:41;;;;;;;18.07;11.43;;;;;;;-145.18;100.00;46652.59;5009694;28;20108;-72
2022/10/31 00:26:06;;;;;;;18.53;11.17;;;;;;;-145.18;100.00;46656.50;5009489;28;20066;-72
2022/10/31 00:28:32;;;;;;;18.67;10.43;;;;;;;-145.18;100.00;46656.50;5009812;28;20042;-72
2022/10/31 00:31:02;;;;;;;17.77;10.10;;;;;;;-145.18;100.00;46654.53;5010136;28;20038;-71
2022/10/31 00:33:27;;;;;;;18.73;10.03;;;;;;;-145.18;100.00;46652.59;5008651;28;20034;-72
2022/10/31 00:35:53;;;;;;;14.27;9.10;;;;;;;-145.18;100.00;46654.53;5077265;28;20098;-72
2022/10/31 00:38:18;;;;;;;17.03;9.17;;;;;;;-145.18;100.00;46656.50;5009240;28;20038;-72
2022/10/31 00:40:43;;;;;;;13.90;9.73;;;;;;;-145.18;100.00;46656.50;5009828;28;20034;-72
2022/10/31 00:43:09;;;;;;;21.33;10.60;;;;;;;-145.18;100.00;46658.44;5009097;28;20079;-72
2022/10/31 00:45:34;;;;;;;15.50;8.80;;;;;;;-145.18;100.00;46658.44;5009731;28;20026;-72
2022/10/31 00:47:59;;;;;;;17.80;11.00;;;;;;;-145.18;100.00;46658.44;5008857;28;20073;-72
2022/10/31 00:50:25;;;;;;;19.77;9.70;;;;;;;-145.18;100.00;46654.53;5009121;28;20045;-72
2022/10/31 00:52:50;;;;;;;20.03;10.10;;;;;;;-145.18;100.00;46656.50;5009367;28;20034;-72
2022/10/31 00:55:16;;;;;;;19.13;9.77;;;;;;;-145.18;100.00;46654.53;5009280;28;20086;-72
2022/10/31 00:57:41;;;;;;;12.33;9.13;;;;;;;-145.18;100.00;46660.41;5009217;28;20037;-72
2022/10/31 01:00:07;;;;;;;13.63;8.50;;;;;;;-145.18;100.00;46658.44;5009161;28;20167;-72
2022/10/31 01:02:32;;;;;;;10.20;7.30;;;;;;;-145.18;100.00;46658.44;5009057;28;20105;-72
2022/10/31 01:04:58;;;;;;;11.63;8.17;;;;;;;-145.18;100.00;46656.50;5009146;28;20133;-72
2022/10/31 01:07:23;;;;;;;10.50;7.67;;;;;;;-145.18;100.00;46656.50;5008685;28;20125;-72
2022/10/31 01:09:48;;;;;;;13.10;8.17;;;;;;;-145.18;100.00;46664.31;5009313;28;20114;-72
2022/10/31 01:12:14;;;;;;;15.00;9.00;;;;;;;-145.18;100.00;46658.44;5008912;28;20030;-72
2022/10/31 01:14:45;;;;;;;14.73;9.97;;;;;;;-145.18;100.00;46662.34;5008990;28;20038;-71
2022/10/31 01:17:11;;;;;;;8.27;6.93;;;;;;;-145.18;100.00;46668.22;5074845;28;20101;-72
2022/10/31 01:19:37;;;;;;;16.37;10.07;;;;;;;-145.18;100.00;46658.44;5009074;28;20038;-72
2022/10/31 01:22:02;;;;;;;17.37;9.03;;;;;;;-145.18;100.00;46662.34;5008648;28;20114;-71
2022/10/31 01:24:28;;;;;;;11.70;8.93;;;;;;;-145.18;100.00;46666.25;5009100;28;20036;-72
2022/10/31 01:26:53;;;;;;;15.30;9.43;;;;;;;-145.18;100.00;46662.34;5008602;28;20405;-72
2022/10/31 01:29:18;;;;;;;15.23;9.33;;;;;;;-145.18;100.00;46660.41;5008765;28;20049;-72
2022/10/31 01:31:44;;;;;;;18.53;12.20;;;;;;;-145.18;100.00;46670.16;5075974;28;20036;-72
2022/10/31 01:34:15;;;;;;;19.93;12.87;;;;;;;-145.18;100.00;46664.31;5008510;28;20109;-72
2022/10/31 01:36:41;;;;;;;23.30;13.13;;;;;;;-145.18;100.00;46660.41;5075849;28;20053;-72
2022/10/31 01:39:12;;;;;;;23.10;14.63;;;;;;;-145.18;100.00;46660.41;5008500;28;20407;-72
2022/10/31 01:41:42;;;;;;;21.53;12.83;;;;;;;-145.18;100.00;46662.34;5008605;28;20033;-71
2022/10/31 01:44:13;;;;;;;19.47;12.40;;;;;;;-145.18;100.00;46660.41;5007818;28;20026;-72
2022/10/31 01:46:51;;;;;;;21.20;13.83;;;;;;;-145.18;100.00;46660.41;5007745;28;20029;-72
2022/10/31 01:49:39;;;;;;;19.43;12.00;;;;;;;-145.18;100.00;46658.44;5008507;28;20037;-72
2022/10/31 01:52:13;;;;;;;16.50;10.03;;;;;;;-145.18;100.00;46656.50;5008295;28;20391;-72
2022/10/31 01:54:50;;;;;;;19.53;13.30;;;;;;;-145.18;100.00;46656.50;5008525;28;20030;-72
2022/10/31 01:57:18;;;;;;;17.53;12.47;;;;;;;-145.18;100.00;46656.50;5008152;28;20029;-72
2022/10/31 01:59:48;;;;;;;14.23;10.77;;;;;;;-145.18;100.00;46660.41;5008494;28;20486;-72
2022/10/31 02:02:16;;;;;;;15.20;10.33;;;;;;;-145.18;100.00;46656.50;5007938;28;20042;-72
2022/10/31 02:04:42;;;;;;;10.33;7.90;;;;;;;-145.18;100.00;46660.41;5008265;28;20406;-72
2022/10/31 02:07:14;;;;;;;12.10;7.63;;;;;;;-145.18;100.00;46656.50;5007923;28;20034;-72
2022/10/31 02:09:40;;;;;;;13.13;9.97;;;;;;;-145.18;100.00;46654.53;5008559;28;20386;-72
2022/10/31 02:12:09;;;;;;;14.23;10.20;;;;;;;-145.18;100.00;46652.59;5075563;28;20041;-72
2022/10/31 02:14:36;;;;;;;12.63;8.87;;;;;;;-145.18;100.00;46658.44;5008344;28;20021;-72
2022/10/31 02:17:01;;;;;;;10.43;7.67;;;;;;;-145.18;100.00;46658.44;5008124;28;20490;-72
2022/10/31 02:19:54;;;;;;;14.57;10.23;;;;;;;-145.18;100.00;46658.44;5007946;28;20034;-72
2022/10/31 02:22:39;;;;;;;17.63;12.23;;;;;;;-145.18;100.00;46656.50;5007631;28;20034;-72
2022/10/31 02:25:20;;;;;;;19.05;11.82;;;;;;;-145.18;100.00;46664.31;5008015;28;20494;-72
2022/10/31 02:28:00;;;;;;;20.60;12.47;;;;;;;-145.18;100.00;46660.41;5007767;28;20038;-72
2022/10/31 02:31:03;;;;;;;23.30;13.93;;;;;;;-145.18;100.00;46658.44;5007888;28;20108;-71
2022/10/31 02:33:43;;;;;;;19.20;13.33;;;;;;;-145.18;100.00;46656.50;5013692;28;20073;-72
2022/10/31 02:36:26;;;;;;;26.07;14.13;;;;;;;-145.18;100.00;46658.44;5007686;28;20041;-72
2022/10/31 02:39:16;;;;;;;19.40;11.80;;;;;;;-145.18;100.00;46656.50;5007683;28;20029;-72
2022/10/31 02:42:08;;;;;;;23.47;11.47;;;;;;;-145.18;100.00;46652.59;5007267;28;20030;-71
2022/10/31 02:45:15;;;;;;;19.67;8.73;;;;;;;-145.18;100.00;46656.50;5007921;28;20046;-71
2022/10/31 02:47:42;;;;;;;11.07;8.50;;;;;;;-145.18;100.00;46656.50;4946666;29;20440;-71
2022/10/31 02:50:17;;;;;;;14.37;9.47;;;;;;;-145.18;100.00;46652.59;4947011;29;20043;-71
2022/10/31 02:52:43;;;;;;;19.45;12.15;;;;;;;-145.18;100.00;46658.44;4979028;28;20419;-71
2022/10/31 02:55:31;;;;;;;17.77;12.43;;;;;;;-145.18;100.00;46656.50;5007123;28;20045;-72
2022/10/31 02:58:01;;;;;;;21.67;12.97;;;;;;;-145.18;100.00;46654.53;5000027;28;20517;-72
2022/10/31 03:03:42;;;;;;;23.92;14.32;;;;;;;-145.18;100.00;46650.63;5208621;22;20405;-72
2022/10/31 03:06:11;;;;;;;22.03;13.40;;;;;;;-145.18;100.00;46658.44;5045110;28;20053;-72
2022/10/31 03:09:09;;;;;;;24.87;15.33;;;;;;;-145.18;100.00;46656.50;5073421;28;20032;-72
2022/10/31 03:12:01;;;;;;;19.30;11.47;;;;;;;-145.18;100.00;46658.44;5073241;28;20087;-72
2022/10/31 03:14:41;;;;;;;19.97;13.50;;;;;;;-145.18;100.00;46652.59;5073529;28;20721;-72
2022/10/31 03:17:15;;;;;;;20.40;11.77;;;;;;;-145.18;100.00;46652.59;5073260;28;20025;-72
2022/10/31 03:19:45;;;;;;;15.60;11.57;;;;;;;-145.18;100.00;46654.53;5073612;28;20028;-72
2022/10/31 03:22:17;;;;;;;18.57;12.70;;;;;;;-145.18;100.00;46654.53;5072847;28;20020;-72
2022/10/31 03:24:43;;;;;;;20.83;12.77;;;;;;;-145.18;100.00;46660.41;5073399;28;20435;-72
2022/10/31 03:27:13;;;;;;;22.50;13.90;;;;;;;-145.18;100.00;46660.41;5072912;28;20036;-72
2022/10/31 03:29:42;;;;;;;21.37;13.33;;;;;;;-145.18;100.00;46658.44;5073373;28;20396;-72
2022/10/31 03:32:14;;;;;;;17.03;12.43;;;;;;;-145.18;100.00;46654.53;5072875;28;20024;-72
2022/10/31 03:34:42;;;;;;;20.17;12.47;;;;;;;-145.18;100.00;46656.50;5073202;28;20115;-72
2022/10/31 03:37:10;;;;;;;19.83;11.83;;;;;;;-145.18;100.00;46658.44;5072626;28;20036;-72
2022/10/31 03:39:38;;;;;;;21.70;12.77;;;;;;;-145.18;100.00;46662.34;5073126;28;20031;-72
2022/10/31 03:42:39;;;;;;;14.13;9.87;;;;;;;-145.18;100.00;46654.53;5072282;28;20033;-71
2022/10/31 03:45:21;;;;;;;18.70;11.20;;;;;;;-145.18;100.00;46654.53;5019590;28;20476;-72
2022/10/31 03:47:47;;;;;;;17.30;10.93;;;;;;;-145.18;100.00;46658.44;5072864;28;20024;-71
2022/10/31 03:50:14;;;;;;;12.73;9.60;;;;;;;-145.18;100.00;46658.44;5072583;28;20035;-72
2022/10/31 03:52:55;;;;;;;17.37;10.40;;;;;;;-145.18;100.00;46656.50;5072733;28;20079;-72
2022/10/31 03:55:30;;;;;;;14.60;9.50;;;;;;;-145.18;100.00;46660.41;5072750;28;20063;-72
2022/10/31 03:58:20;;;;;;;9.70;6.10;;;;;;;-145.18;100.00;46660.41;5087105;28;20403;-72
2022/10/31 04:00:48;;;;;;;15.13;8.97;;;;;;;-145.18;100.00;46658.44;5093142;28;20119;-72
2022/10/31 04:03:30;;;;;;;13.47;8.93;;;;;;;-145.18;100.00;46658.44;5074332;28;20055;-72
2022/10/31 04:05:59;;;;;;;14.17;9.00;;;;;;;-145.18;100.00;46664.31;5072219;28;20049;-72
2022/10/31 04:08:29;;;;;;;12.43;7.80;;;;;;;-145.18;100.00;46664.31;5071324;28;20040;-72
2022/10/31 04:10:57;;;;;;;23.50;8.90;;;;;;;-145.18;100.00;46662.34;5072344;28;20039;-71
2022/10/31 04:13:27;;;;;;;36.03;7.90;;;;;;;-145.18;100.00;46662.34;5071780;28;20040;-72
2022/10/31 04:15:54;;;;;;;12.97;8.30;;;;;;;-145.18;100.00;46664.31;5071991;28;20048;-72
2022/10/31 04:18:21;;;;;;;15.77;9.37;;;;;;;-145.18;100.00;46658.44;5072212;28;20036;-72
2022/10/31 04:20:49;;;;;;;14.43;9.47;;;;;;;-145.18;100.00;46670.16;5072284;28;20036;-71
2022/10/31 04:23:25;;;;;;;17.77;9.53;;;;;;;-145.18;100.00;46660.41;5071929;28;20083;-71
2022/10/31 04:25:51;;;;;;;17.80;9.33;;;;;;;-145.18;100.00;46664.31;5071828;28;20028;-71
2022/10/31 04:28:17;;;;;;;17.53;10.73;;;;;;;-145.18;100.00;46666.25;5071990;28;20538;-71
2022/10/31 04:30:42;;;;;;;16.57;11.47;;;;;;;-145.18;100.00;46662.34;5071932;28;20040;-71
2022/10/31 04:33:08;;;;;;;15.07;10.53;;;;;;;-145.18;100.00;46660.41;5071590;28;20044;-72
2022/10/31 04:35:33;;;;;;;25.00;12.37;;;;;;;-145.18;100.00;46662.34;5071872;28;20040;-71
2022/10/31 04:37:58;;;;;;;23.53;12.60;;;;;;;-145.18;100.00;46664.31;5071427;28;20443;-72
2022/10/31 04:40:24;;;;;;;42.80;12.77;;;;;;;-145.18;100.00;46668.22;5071766;28;20040;-72
2022/10/31 04:42:49;;;;;;;20.37;11.80;;;;;;;-145.18;100.00;46664.31;5053530;28;20036;-72
2022/10/31 04:45:14;;;;;;;24.17;13.50;;;;;;;-145.18;100.00;46658.44;5071928;28;20056;-72
2022/10/31 04:47:40;;;;;;;25.53;12.67;;;;;;;-145.18;100.00;46656.50;5071453;28;20044;-72
2022/10/31 04:50:05;;;;;;;21.10;10.90;;;;;;;-145.18;100.00;46662.34;5061521;28;20493;-71
2022/10/31 04:52:31;;;;;;;20.70;11.30;;;;;;;-145.18;100.00;46654.53;5071023;28;20063;-72
2022/10/31 04:54:56;;;;;;;17.90;9.87;;;;;;;-145.18;100.00;46652.59;5071256;28;20036;-72
2022/10/31 04:57:21;;;;;;;20.57;12.70;;;;;;;-145.18;100.00;46652.59;5070624;28;20033;-71
2022/10/31 04:59:47;;;;;;;21.97;13.37;;;;;;;-145.18;100.00;46656.50;5085636;28;20039;-72
2022/10/31 05:02:12;;;;;;;19.43;12.70;;;;;;;-145.18;100.00;46658.44;5072616;28;20032;-71
2022/10/31 05:04:37;;;;;;;16.37;11.87;;;;;;;-145.18;100.00;46658.44;5071018;28;20036;-71
2022/10/31 05:07:03;;;;;;;21.47;13.27;;;;;;;-145.18;100.00;46658.44;5070655;28;20036;-71
2022/10/31 05:09:28;;;;;;;16.70;9.57;;;;;;;-145.18;100.00;46658.44;5070531;28;20105;-72
2022/10/31 05:11:53;;;;;;;16.13;10.30;;;;;;;-145.18;100.00;46662.34;5070398;28;20036;-72
2022/10/31 05:14:18;;;;;;;25.40;11.07;;;;;;;-145.18;100.00;46658.44;5070549;28;20082;-72
2022/10/31 05:16:44;;;;;;;14.03;8.83;;;;;;;-145.18;100.00;46660.41;5070609;28;20095;-72
2022/10/31 05:19:09;;;;;;;10.80;6.83;;;;;;;-145.18;100.00;46662.34;5070194;28;20043;-72
2022/10/31 05:21:34;;;;;;;9.97;6.43;;;;;;;-145.18;100.00;46660.41;5067519;28;20047;-72
2022/10/31 05:24:00;;;;;;;16.23;5.63;;;;;;;-145.18;100.00;46656.50;5070451;28;20044;-72
2022/10/31 05:26:25;;;;;;;8.07;5.40;;;;;;;-145.18;100.00;46658.44;5036147;28;20032;-71
2022/10/31 05:28:51;;;;;;;10.13;6.63;;;;;;;-145.18;100.00;46664.31;5070145;28;20025;-71
2022/10/31 05:31:16;;;;;;;12.30;7.83;;;;;;;-145.18;100.00;46666.25;5068099;28;20048;-72
2022/10/31 05:33:41;;;;;;;13.73;7.83;;;;;;;-145.18;100.00;46662.34;5069605;28;20037;-72
2022/10/31 05:36:07;;;;;;;17.07;9.77;;;;;;;-145.18;100.00;46658.44;5051998;28;20122;-72
2022/10/31 05:38:32;;;;;;;27.73;10.60;;;;;;;-145.18;100.00;46662.34;5069984;28;20045;-72
2022/10/31 05:40:59;;;;;;;19.43;10.73;;;;;;;-145.18;100.00;46662.34;5069626;28;20035;-72
2022/10/31 05:43:25;;;;;;;23.87;11.70;;;;;;;-145.18;100.00;46660.41;5069824;28;20495;-72
2022/10/31 05:45:54;;;;;;;23.17;10.57;;;;;;;-145.18;100.00;46662.34;5069602;28;20036;-72
2022/10/31 05:48:20;;;;;;;18.27;10.20;;;;;;;-145.18;100.00;46664.31;5070459;28;20037;-72
2022/10/31 05:50:47;;;;;;;13.80;10.37;;;;;;;-145.18;100.00;46666.25;5068718;28;20110;-72
2022/10/31 05:53:13;;;;;;;21.27;9.77;;;;;;;-145.18;100.00;46664.31;5068164;28;20409;-72
2022/10/31 05:55:40;;;;;;;45.37;9.90;;;;;;;-145.18;100.00;46660.41;5069660;28;20035;-71
2022/10/31 05:58:06;;;;;;;45.70;9.60;;;;;;;-145.18;100.00;46654.53;5068441;28;20035;-71
2022/10/31 06:00:34;;;;;;;50.33;9.80;;;;;;;-145.18;100.00;46664.31;5069862;28;20024;-72
2022/10/31 06:03:01;;;;;;;43.57;8.77;;;;;;;-145.18;100.00;46664.31;5069387;28;20099;-72
2022/10/31 06:05:28;;;;;;;79.70;9.60;;;;;;;-145.18;100.00;46662.34;5069974;28;20111;-72
2022/10/31 06:07:53;;;;;;;78.30;10.07;;;;;;;-145.18;100.00;46660.41;5051838;28;20980;-72
2022/10/31 06:10:20;;;;;;;18.47;10.40;;;;;;;-145.18;100.00;46658.44;5070385;28;20032;-72
2022/10/31 06:12:46;;;;;;;101.37;11.97;;;;;;;-145.18;100.00;46658.44;5070057;28;20044;-72
2022/10/31 06:15:11;;;;;;;42.50;13.37;;;;;;;-145.18;100.00;46656.50;5070068;28;20276;-72
2022/10/31 06:17:37;;;;;;;22.20;12.90;;;;;;;-145.18;100.00;46664.31;5051749;28;20028;-72
2022/10/31 06:20:03;;;;;;;26.40;14.70;;;;;;;-145.18;100.00;46664.31;5069889;28;20036;-72
2022/10/31 06:22:29;;;;;;;25.97;14.30;;;;;;;-145.18;100.00;46660.41;5069980;28;20028;-72
2022/10/31 06:24:54;;;;;;;36.10;16.03;;;;;;;-145.18;100.00;46662.34;5069920;28;20154;-72
2022/10/31 06:27:19;;;;;;;28.40;15.00;;;;;;;-145.18;100.00;46658.44;5070115;28;20033;-72
2022/10/31 06:29:45;;;;;;;203.43;18.33;;;;;;;-145.18;100.00;46656.50;5069002;28;20532;-72
2022/10/31 06:32:12;;;;;;;60.63;15.93;;;;;;;-145.18;100.00;46656.50;5068853;28;20024;-72
2022/10/31 06:34:37;;;;;;;53.47;16.03;;;;;;;-145.18;100.00;46658.44;5069816;28;20074;-72
2022/10/31 06:37:03;;;;;;;90.77;16.80;;;;;;;-145.18;100.00;46656.50;5051857;28;20025;-72
2022/10/31 06:39:28;;;;;;;59.03;16.53;;;;;;;-145.18;100.00;46654.53;5069110;28;20102;-72
2022/10/31 06:41:53;;;;;;;64.77;17.00;;;;;;;-145.18;100.00;46652.59;5069307;28;20111;-72
2022/10/31 06:44:19;;;;;;;50.73;16.60;;;;;;;-145.18;100.00;46658.44;5069939;28;20032;-72
2022/10/31 06:46:47;;;;;;;60.10;18.37;;;;;;;-145.18;100.00;46656.50;5069703;28;20056;-73
2022/10/31 06:49:12;;;;;;;39.57;19.27;;;;;;;-145.18;100.00;46656.50;5069585;28;20072;-73
2022/10/31 06:51:38;;;;;;;37.53;18.47;;;;;;;-145.18;100.00;46658.44;5052024;28;20075;-73
2022/10/31 06:54:03;;;;;;;36.87;18.30;;;;;;;-145.18;100.00;46654.53;5069651;28;20048;-72
2022/10/31 06:56:29;;;;;;;36.50;19.70;;;;;;;-145.18;100.00;46658.44;5069666;28;20032;-72
2022/10/31 06:58:54;;;;;;;36.47;19.90;;;;;;;-145.18;100.00;46652.59;5069419;28;20025;-73
2022/10/31 07:01:19;;;;;;;28.30;19.30;;;;;;;-145.18;100.00;46648.69;5069935;28;20081;-73
2022/10/31 07:03:45;;;;;;;42.83;22.87;;;;;;;-145.18;100.00;46650.63;5069246;28;20084;-72
2022/10/31 07:06:10;;;;;;;42.03;22.13;;;;;;;-145.18;100.00;46654.53;5048466;28;20412;-73
2022/10/31 07:08:35;;;;;;;40.33;22.40;;;;;;;-145.18;100.00;46654.53;5040706;28;20224;-73
2022/10/31 07:11:01;;;;;;;36.30;22.23;;;;;;;-145.18;100.00;46654.53;5048656;28;20116;-73
2022/10/31 07:13:26;;;;;;;34.37;21.93;;;;;;;-145.18;100.00;46656.50;5064744;28;20531;-73
2022/10/31 07:16:00;;;;;;;46.93;22.20;;;;;;;-145.18;100.00;46650.63;5069107;28;20124;-73
2022/10/31 07:18:25;;;;;;;34.10;21.03;;;;;;;-145.18;100.00;46654.53;5069456;28;20025;-73
2022/10/31 07:20:51;;;;;;;35.50;20.90;;;;;;;-145.18;100.00;46652.59;5067942;28;20052;-73
2022/10/31 07:23:16;;;;;;;33.00;19.37;;;;;;;-145.18;100.00;46646.72;5069270;28;20033;-72
2022/10/31 07:25:42;;;;;;;36.00;19.50;;;;;;;-145.18;100.00;46648.69;5069549;28;20093;-73
2022/10/31 07:28:08;;;;;;;165.63;20.23;;;;;;;-145.18;100.00;46648.69;5067140;28;20371;-73
2022/10/31 07:30:33;;;;;;;29.07;17.63;;;;;;;-145.18;100.00;46648.69;5066940;28;20044;-73
2022/10/31 07:32:59;;;;;;;26.60;18.43;;;;;;;-145.18;100.00;46648.69;5068694;28;20129;-73
2022/10/31 07:35:27;;;;;;;39.53;18.67;;;;;;;-145.18;100.00;46652.59;5068853;28;20032;-73
2022/10/31 07:37:53;;;;;;;26.27;17.83;;;;;;;-145.18;100.00;46648.69;5069057;28;20036;-73
2022/10/31 07:40:19;;;;;;;31.50;19.87;;;;;;;-145.18;100.00;46648.69;5069273;28;20028;-72
2022/10/31 07:42:46;;;;;;;34.13;19.73;;;;;;;-145.18;100.00;46646.72;5068894;28;20137;-73
2022/10/31 07:45:14;;;;;;;31.60;20.40;;;;;;;-145.18;100.00;46650.63;5068736;28;20025;-72
2022/10/31 07:47:40;;;;;;;29.60;19.50;;;;;;;-145.18;100.00;46652.59;5072007;28;20075;-72
2022/10/31 07:50:06;;;;;;;31.60;19.03;;;;;;;-145.18;100.00;46644.78;5071750;28;20358;-73
2022/10/31 07:52:31;;;;;;;28.10;19.33;;;;;;;-145.18;100.00;46642.81;5072514;28;20111;-73
2022/10/31 07:54:57;;;;;;;35.63;20.27;;;;;;;-145.18;100.00;46648.69;5071689;28;20162;-73
2022/10/31 07:57:22;;;;;;;32.43;22.13;;;;;;;-145.18;100.00;46648.69;5053822;28;20052;-73
2022/10/31 07:59:48;;;;;;;39.23;23.70;;;;;;;-145.18;100.00;46650.63;5071692;28;20040;-73
2022/10/31 08:02:13;;;;;;;33.60;21.30;;;;;;;-145.18;100.00;46648.69;5071657;28;20041;-73
2022/10/31 08:04:38;;;;;;;32.43;21.20;;;;;;;-145.18;100.00;46646.72;5071863;28;20048;-73
2022/10/31 08:07:04;;;;;;;34.40;21.23;;;;;;;-145.18;100.00;46648.69;5071755;28;20076;-73
2022/10/31 08:09:29;;;;;;;35.97;23.03;;;;;;;-145.18;100.00;46644.78;5071800;28;20126;-73
2022/10/31 08:11:54;;;;;;;36.47;22.93;;;;;;;-145.18;100.00;46644.78;5071719;28;20119;-73
2022/10/31 08:14:20;;;;;;;36.47;22.90;;;;;;;-145.18;100.00;46648.69;5071577;28;20039;-73
2022/10/31 08:16:46;;;;;;;40.73;23.43;;;;;;;-145.18;100.00;46644.78;5071938;28;20033;-73
2022/10/31 08:19:11;;;;;;;43.57;26.27;;;;;;;-145.18;100.00;46648.69;5071361;28;20738;-73
2022/10/31 08:21:36;;;;;;;37.80;24.73;;;;;;;-145.18;100.00;46648.69;5071180;28;20514;-73
2022/10/31 08:24:02;;;;;;;39.00;25.17;;;;;;;-145.18;100.00;46650.63;5071009;28;20037;-73
2022/10/31 08:26:27;;;;;;;40.97;24.90;;;;;;;-145.18;100.00;46644.78;5071635;28;20032;-73
2022/10/31 08:28:54;;;;;;;37.90;25.27;;;;;;;-145.18;100.00;46646.72;5053086;28;20207;-73
2022/10/31 08:31:20;;;;;;;39.13;24.60;;;;;;;-145.18;100.00;46648.69;5071931;28;20033;-73
2022/10/31 08:33:46;;;;;;;38.47;24.73;;;;;;;-145.18;100.00;46648.69;5070837;28;20098;-73
2022/10/31 08:36:11;;;;;;;39.73;25.80;;;;;;;-145.18;100.00;46648.69;5071316;28;20045;-73
2022/10/31 08:38:36;;;;;;;40.67;24.17;;;;;;;-145.18;100.00;46646.72;5071264;28;20028;-73
2022/10/31 08:41:02;;;;;;;38.33;24.60;;;;;;;-145.18;100.00;46646.72;5071267;28;20468;-73
2022/10/31 08:43:27;;;;;;;36.13;22.77;;;;;;;-145.18;100.00;46646.72;5070840;28;20381;-73
2022/10/31 08:45:54;;;;;;;37.87;23.43;;;;;;;-145.18;100.00;46642.81;5071040;28;20033;-73
2022/10/31 08:48:20;;;;;;;38.90;24.47;;;;;;;-145.18;100.00;46640.88;5071154;28;20386;-73
2022/10/31 08:50:46;;;;;;;38.40;23.73;;;;;;;-145.18;100.00;46648.69;5071420;28;20029;-73
2022/10/31 08:53:18;;;;;;;39.00;24.60;;;;;;;-145.18;100.00;46648.69;5070234;28;20457;-73
2022/10/31 08:55:44;;;;;;;42.73;24.07;;;;;;;-145.18;100.00;46648.69;5070860;28;20025;-73
2022/10/31 08:58:15;;;;;;;35.20;22.50;;;;;;;-145.18;100.00;46648.69;5070712;28;20388;-73
2022/10/31 09:00:41;;;;;;;37.53;23.63;;;;;;;-145.18;100.00;46644.78;5071335;28;20028;-73
2022/10/31 09:03:11;;;;;;;45.67;23.83;;;;;;;-145.18;100.00;46642.81;5070400;28;20040;-73
2022/10/31 09:05:37;;;;;;;44.53;25.70;;;;;;;-145.18;100.00;46646.72;5071127;28;20043;-73
2022/10/31 09:08:04;;;;;;;43.83;27.47;;;;;;;-145.18;100.00;46652.59;5069872;28;20512;-73
2022/10/31 09:10:31;;;;;;;46.07;26.93;;;;;;;-145.18;100.00;46646.72;5070706;28;20077;-73
2022/10/31 09:13:06;;;;;;;47.07;26.97;;;;;;;-145.18;100.00;46648.69;5069957;28;20485;-73
2022/10/31 09:15:33;;;;;;;54.38;28.20;;;;;;;-145.18;100.00;46646.72;5070786;28;20024;-73
2022/10/31 09:18:00;;;;;;;49.10;27.57;;;;;;;-145.18;100.00;46648.69;5070315;28;20032;-74
2022/10/31 09:20:26;;;;;;;48.60;28.97;;;;;;;-145.18;100.00;46646.72;5069741;28;20025;-73
2022/10/31 09:23:00;;;;;;;54.50;31.40;;;;;;;-145.18;100.00;46648.69;5070362;28;20043;-73
2022/10/31 09:25:26;;;;;;;52.33;30.43;;;;;;;-145.18;100.00;46650.63;5070259;28;20119;-73
2022/10/31 09:27:56;;;;;;;56.00;30.83;;;;;;;-145.18;100.00;46650.63;5051583;28;20392;-74
2022/10/31 09:30:21;;;;;;;54.97;31.80;;;;;;;-145.18;100.00;46648.69;5070383;28;20044;-73
2022/10/31 09:32:46;;;;;;;53.20;31.30;;;;;;;-145.18;100.00;46646.72;5070181;28;20460;-73
2022/10/31 09:35:12;;;;;;;56.37;32.33;;;;;;;-145.18;100.00;46644.78;5052084;28;20033;-73
2022/10/31 09:37:37;;;;;;;47.97;28.27;;;;;;;-145.18;100.00;46650.63;5070303;28;20039;-74
2022/10/31 09:40:03;;;;;;;47.70;28.77;;;;;;;-145.18;100.00;46650.63;5069831;28;20102;-73
2022/10/31 09:42:57;;;;;;;48.00;29.20;;;;;;;-145.18;100.00;46648.69;5051888;28;20035;-73
2022/10/31 09:45:41;;;;;;;54.03;30.07;;;;;;;-145.18;100.00;46650.63;5070174;28;20693;-74
2022/10/31 09:48:19;;;;;;;49.53;27.90;;;;;;;-145.18;100.00;46654.53;5069369;28;20028;-73
2022/10/31 09:50:54;;;;;;;58.93;31.00;;;;;;;-145.18;100.00;46652.59;5070164;28;20488;-73
2022/10/31 09:53:43;;;;;;;53.80;31.43;;;;;;;-145.18;100.00;46648.69;5070020;28;20074;-73
2022/10/31 09:56:15;;;;;;;54.83;31.83;;;;;;;-145.18;100.00;46650.63;5069707;28;20830;-74
2022/10/31 09:58:44;;;;;;;55.93;31.93;;;;;;;-145.18;100.00;46652.59;5069658;28;20032;-73
2022/10/31 10:01:22;;;;;;;49.43;29.60;;;;;;;-145.18;100.00;46650.63;5069645;28;20055;-73
2022/10/31 10:03:51;;;;;;;55.37;31.40;;;;;;;-145.18;100.00;46648.69;5067941;28;20504;-73
2022/10/31 10:06:24;;;;;;;51.13;30.73;;;;;;;-145.18;100.00;46652.59;5069462;28;20039;-73
2022/10/31 10:08:49;;;;;;;54.27;28.87;;;;;;;-145.18;100.00;46654.53;5069563;28;20140;-73
2022/10/31 10:11:45;;;;;;;51.70;29.20;;;;;;;-145.18;100.00;46650.63;5052046;28;20111;-73
2022/10/31 10:14:31;;;;;;;50.67;28.43;;;;;;;-145.18;100.00;46658.44;5061837;28;20103;-74
2022/10/31 10:17:12;;;;;;;46.03;27.75;;;;;;;-145.18;100.00;46656.50;5069733;28;20530;-73
2022/10/31 10:19:40;;;;;;;48.17;25.80;;;;;;;-145.18;100.00;46654.53;5069837;28;20032;-73
2022/10/31 10:22:24;;;;;;;39.67;24.83;;;;;;;-145.18;100.00;46656.50;5069661;28;20032;-73
2022/10/31 10:25:13;;;;;;;41.03;24.53;;;;;;;-145.18;100.00;46654.53;5068834;28;20020;-73
2022/10/31 10:27:58;;;;;;;37.13;22.67;;;;;;;-145.18;100.00;46654.53;5069765;28;20040;-73
2022/10/31 10:30:33;;;;;;;41.47;21.97;;;;;;;-145.18;100.00;46658.44;5069548;28;20078;-73
2022/10/31 10:33:10;;;;;;;37.35;22.15;;;;;;;-145.18;100.00;46664.31;5069481;28;20120;-73
2022/10/31 10:35:47;;;;;;;32.93;19.87;;;;;;;-145.18;100.00;46662.34;5069500;28;20433;-73
2022/10/31 10:38:26;;;;;;;37.53;20.00;;;;;;;-145.18;100.00;46660.41;5069389;28;20044;-73
2022/10/31 10:40:53;;;;;;;33.27;19.47;;;;;;;-145.18;100.00;46672.13;5069360;28;20056;-73
2022/10/31 10:43:29;;;;;;;34.17;19.93;;;;;;;-145.18;100.00;46668.22;5069532;28;20378;-73
2022/10/31 10:49:16;;;;;;;30.77;16.70;;;;;;;-145.18;100.00;46674.06;5068979;28;20039;-73
2022/10/31 10:51:48;;;;;;;35.73;17.37;;;;;;;-145.18;100.00;46677.97;5069043;28;20423;-73
2022/10/31 10:54:39;;;;;;;25.47;18.00;;;;;;;-145.18;100.00;46674.06;5069419;28;20030;-73
2022/10/31 10:57:28;;;;;;;28.77;19.97;;;;;;;-145.18;100.00;46670.16;5069110;28;20118;-73
2022/10/31 10:59:54;;;;;;;31.17;21.23;;;;;;;-145.18;100.00;46674.06;5030722;28;20512;-73
2022/10/31 11:02:23;;;;;;;35.73;22.83;;;;;;;-145.18;100.00;46677.97;5051376;28;20024;-73
2022/10/31 11:04:57;;;;;;;39.40;23.83;;;;;;;-145.18;100.00;46674.06;5068982;28;20816;-73
2022/10/31 11:07:23;;;;;;;41.37;24.10;;;;;;;-145.18;100.00;46679.94;5069662;28;20086;-73
2022/10/31 11:09:48;;;;;;;44.80;24.93;;;;;;;-145.18;100.00;46677.97;5068908;28;20029;-73
2022/10/31 11:12:26;;;;;;;38.63;23.83;;;;;;;-145.18;100.00;46672.13;5051318;28;20029;-73
2022/10/31 11:14:59;;;;;;;42.13;26.33;;;;;;;-145.18;100.00;46672.13;5050579;28;20027;-73